Kaami — C6VO9 — position and weather

sailwx.info

Track history (hours):
 
Tides and Currents Weather Stations Pressure Air Temp Water Temp Dewpoint Dewpoint Depression Visibility Wind Speed Wind Dir Waves Ship Positions

Kaami

Last reported at 2017-May-27 15:30 UTC. Time now 2017-May-27 15:51 UTC.
Position N 51°22' E 004°08'.

Length 90 m; draft 3.6 m.

Type: Cargo ship. MMSI: 308542000.

Date/timePositionNaut miles runAvg speedWind from/ knotsBaromVisibWave heightAir tempDewpointWater temp
2017-May-27 15:30N 51°22' E 004°08'3 6.3
2017-May-27 15:00N 51°23' E 004°13'6 5.5
2017-May-27 14:00N 51°18' E 004°17'3 5.1
2017-May-27 13:30N 51°16' E 004°18'1 1.5
2017-May-27 13:00N 51°16' E 004°17'0 0.0
2017-May-27 12:30N 51°16' E 004°17'1 2.7
2017-May-27 12:00N 51°16' E 004°14'0 0.2
2017-May-27 10:23N 51°16' E 004°14'0 0.0
2017-May-27 08:59N 51°16' E 004°14'0 0.0
2017-May-27 08:14N 51°16' E 004°14'0 0.0
2017-May-27 07:59N 51°16' E 004°14'0 0.0
2017-May-27 06:59N 51°16' E 004°14'0 0.0
2017-May-27 06:29N 51°16' E 004°14'0 0.0
2017-May-27 05:47N 51°16' E 004°14'0 0.0
2017-May-27 05:26N 51°16' E 004°14'0 0.0
2017-May-27 03:59N 51°16' E 004°14'0 0.0
2017-May-27 03:29N 51°16' E 004°14'0 0.0
2017-May-27 02:59N 51°16' E 004°14'0 0.0
2017-May-27 02:29N 51°16' E 004°14'0 0.0
2017-May-27 01:56N 51°16' E 004°14'0 0.0
2017-May-27 01:29N 51°16' E 004°14'0 0.0
2017-May-27 00:59N 51°16' E 004°14'0 0.0
2017-May-27 00:29N 51°16' E 004°14'0 0.0
2017-May-26 23:59N 51°16' E 004°14'0 0.0
2017-May-26 23:26N 51°16' E 004°14'0 0.0
2017-May-26 22:53N 51°16' E 004°14'0 0.0
2017-May-26 22:29N 51°16' E 004°14'0 0.0
2017-May-26 21:59N 51°16' E 004°14'0 0.0
2017-May-26 21:20N 51°16' E 004°14'0 0.0
2017-May-26 20:59N 51°16' E 004°14'0 0.0
2017-May-26 20:26N 51°16' E 004°14'0 0.0
2017-May-26 19:59N 51°16' E 004°14'0 0.0
2017-May-26 19:29N 51°16' E 004°14'0 0.0
2017-May-26 18:59N 51°16' E 004°14'0 0.0
2017-May-26 18:29N 51°16' E 004°14'0 0.0
2017-May-26 17:59N 51°16' E 004°14'0 0.0
2017-May-26 17:28N 51°16' E 004°14'0 0.0
2017-May-26 16:58N 51°16' E 004°14'0 0.0
2017-May-26 16:28N 51°16' E 004°14'0 0.0
2017-May-26 15:46N 51°16' E 004°14'0 0.0
2017-May-26 15:25N 51°16' E 004°14'0 0.0
2017-May-26 14:58N 51°16' E 004°14'0 0.0
2017-May-26 13:58N 51°16' E 004°14'0 0.0
2017-May-26 13:28N 51°16' E 004°14'0 0.0
2017-May-26 12:58N 51°16' E 004°14'0 0.0
2017-May-26 12:10N 51°16' E 004°14'0 0.0
2017-May-26 11:19N 51°16' E 004°14'0 0.0
2017-May-26 09:52N 51°16' E 004°14'0 0.0
2017-May-26 09:22N 51°16' E 004°14'0 0.0
2017-May-26 08:52N 51°16' E 004°14'0 0.0
2017-May-26 08:28N 51°16' E 004°14'0 0.0
2017-May-26 07:55N 51°16' E 004°14'0 0.0
2017-May-26 07:28N 51°16' E 004°14'0 0.0
2017-May-26 06:58N 51°16' E 004°14'0 0.0
2017-May-26 06:25N 51°16' E 004°14'0 0.0
2017-May-26 05:58N 51°16' E 004°14'0 0.0
2017-May-26 05:28N 51°16' E 004°14'0 0.0
2017-May-26 04:58N 51°16' E 004°14'0 0.0
2017-May-26 04:28N 51°16' E 004°14'0 0.0
2017-May-26 03:58N 51°16' E 004°14'0 0.0
2017-May-26 03:25N 51°16' E 004°14'0 0.0
2017-May-26 02:58N 51°16' E 004°14'0 0.0
2017-May-26 02:28N 51°16' E 004°14'0 0.3
2017-May-26 01:58N 51°16' E 004°14'1 2.2
2017-May-26 01:30N 51°16' E 004°16'0 1.0
2017-May-26 01:00N 51°16' E 004°17'2 3.0
2017-May-26 00:31N 51°17' E 004°19'4 7.8
2017-May-26 00:01N 51°20' E 004°16'4 8.8
2017-May-25 23:30N 51°24' E 004°12'5 9.3
2017-May-25 23:01N 51°22' E 004°05'4 8.9
2017-May-25 22:31N 51°26' E 004°01'4 8.0
2017-May-25 22:00N 51°23' E 003°57'5 9.6
2017-May-25 21:31N 51°21' E 003°50'5 9.2
2017-May-25 21:01N 51°23' E 003°43'5 9.1
2017-May-25 20:31N 51°25' E 003°37'4 8.9
2017-May-25 20:00N 51°28' E 003°31'510.0
2017-May-25 19:30N 51°31' E 003°26'5 9.2
2017-May-25 19:00N 51°36' E 003°23'4 8.7
2017-May-25 18:30N 51°39' E 003°19'4 8.6
2017-May-25 18:00N 51°43' E 003°15'4 7.8
2017-May-25 17:31N 51°47' E 003°14'4 8.6
2017-May-25 17:00N 51°51' E 003°17'4 8.1
2017-May-25 16:31N 51°54' E 003°19'4 7.9
2017-May-25 16:01N 51°58' E 003°20'4 7.7
2017-May-25 15:30N 52°02' E 003°20'4 7.4
2017-May-25 14:59N 52°06' E 003°21'7 7.2
2017-May-25 14:00N 52°13' E 003°23'4 6.8
2017-May-25 13:23N 52°17' E 003°24'3 6.8
2017-May-25 12:59N 52°20' E 003°25'6 7.3
2017-May-25 12:09N 52°26' E 003°27'2 7.9
2017-May-25 11:57N 52°27' E 003°27'4 8.3
2017-May-25 11:30N 52°31' E 003°28'4 8.8
2017-May-25 11:00N 52°35' E 003°30'34 9.5
2017-May-25 07:28N 53°00' E 004°06'9 9.0
2017-May-25 06:30N 53°07' E 004°17'4 7.9
2017-May-25 05:58N 53°10' E 004°21'3 6.8
2017-May-25 05:30N 53°12' E 004°24'4 7.3
2017-May-25 05:00N 53°16' E 004°26'3 6.5
2017-May-25 04:30N 53°19' E 004°28'3 6.6
2017-May-25 04:00N 53°22' E 004°30'3 6.6
2017-May-25 03:30N 53°25' E 004°32'3 7.0
2017-May-25 03:00N 53°28' E 004°34'4 7.6
2017-May-25 02:30N 53°32' E 004°36'4 8.2
2017-May-25 01:59N 53°36' E 004°38'4 8.6
2017-May-25 01:30N 53°40' E 004°41'10 8.8
2017-May-25 00:24N 53°49' E 004°46'5 8.7
2017-May-24 23:50N 53°54' E 004°49'13 8.6
2017-May-24 22:22N 54°05' E 004°57'279 8.4
2017-May-23 13:08N 58°44' E 004°34'1 7.1
2017-May-23 13:00N 58°45' E 004°34'4 7.0
2017-May-23 12:30N 58°49' E 004°34'5 7.1
2017-May-23 11:50N 58°54' E 004°33'105 7.8
2017-May-22 22:20N 60°39' E 004°21'3 8.1
2017-May-22 22:00N 60°41' E 004°20'4 7.9
2017-May-22 21:30N 60°45' E 004°19'4 7.9
2017-May-22 21:00N 60°49' E 004°19'4 7.7
2017-May-22 20:30N 60°53' E 004°18'4 7.4
2017-May-22 20:01N 60°57' E 004°18'4 7.4
2017-May-22 19:30N 61°00' E 004°18'4 7.3
2017-May-22 18:59N 61°04' E 004°18'3 6.9
2017-May-22 18:30N 61°07' E 004°18'4 7.3
2017-May-22 18:00N 61°11' E 004°18'3 6.8
2017-May-22 17:30N 61°15' E 004°18'4 7.1
2017-May-22 17:00N 61°18' E 004°19'4 7.2
2017-May-22 16:30N 61°22' E 004°19'6 7.4
2017-May-22 15:41N 61°28' E 004°20'1 7.6
2017-May-22 15:31N 61°29' E 004°21'4 7.6
2017-May-22 15:00N 61°33' E 004°23'8 7.7
2017-May-22 14:00N 61°40' E 004°28'4 7.9
2017-May-22 13:30N 61°44' E 004°31'4 7.9
2017-May-22 13:00N 61°48' E 004°33'4 8.1
2017-May-22 12:30N 61°51' E 004°36'4 8.1
2017-May-22 12:00N 61°55' E 004°38'4 8.4
2017-May-22 11:30N 61°59' E 004°40'4 8.6
2017-May-22 11:00N 62°03' E 004°43'4 8.3
2017-May-22 10:30N 62°07' E 004°46'4 8.1
2017-May-22 10:00N 62°11' E 004°49'4 8.5
2017-May-22 09:30N 62°15' E 004°55'4 8.5
2017-May-22 09:00N 62°18' E 005°00'4 8.4
2017-May-22 08:30N 62°21' E 005°05'4 8.1
2017-May-22 08:00N 62°25' E 005°10'4 8.0
2017-May-22 07:30N 62°28' E 005°15'4 8.1
2017-May-22 07:00N 62°31' E 005°21'4 8.2
2017-May-22 06:30N 62°35' E 005°26'4 8.4
2017-May-22 06:00N 62°38' E 005°31'4 8.4
2017-May-22 05:30N 62°41' E 005°37'4 8.3
2017-May-22 05:00N 62°45' E 005°42'4 8.2
2017-May-22 04:30N 62°48' E 005°47'4 8.1
2017-May-22 04:00N 62°51' E 005°53'4 8.1
2017-May-22 03:30N 62°55' E 005°58'4 8.1
2017-May-22 02:59N 62°58' E 006°03'244 8.3
2017-May-20 21:29N 66°14' E 011°43'4 8.7
2017-May-20 21:00N 66°15' E 011°53'4 8.7
2017-May-20 20:30N 66°16' E 012°04'4 8.8
2017-May-20 20:00N 66°17' E 012°14'4 8.7
2017-May-20 19:31N 66°15' E 012°24'4 8.6
2017-May-20 19:00N 66°15' E 012°35'4 8.4
2017-May-20 18:31N 66°18' E 012°44'4 8.6
2017-May-20 18:00N 66°20' E 012°52'4 8.1
2017-May-20 17:29N 66°23' E 012°58'4 8.9
2017-May-20 17:01N 66°28' E 012°59'4 8.5
2017-May-20 16:30N 66°32' E 012°58'4 8.0
2017-May-20 16:01N 66°35' E 013°05'4 8.6
2017-May-20 15:31N 66°39' E 013°06'5 8.8
2017-May-20 15:00N 66°43' E 013°10'4 8.4
2017-May-20 14:30N 66°47' E 013°16'8 8.5
2017-May-20 13:30N 66°49' E 013°37'4 8.5
2017-May-20 13:00N 66°49' E 013°48'  
Track history (hours):
 
Tides and Currents Weather Stations Pressure Air Temp Water Temp Dewpoint Dewpoint Depression Visibility Wind Speed Wind Dir Waves Ship Positions

Kaami

Last reported at 2017-May-27 15:30 UTC. Time now 2017-May-27 15:51 UTC.
Position N 51°22' E 004°08'.

Length 90 m; draft 3.6 m.

Type: Cargo ship. MMSI: 308542000.

Date/timePositionNaut miles runAvg speedWind from/ knotsBaromVisibWave heightAir tempDewpointWater temp
2017-May-27 15:30N 51°22' E 004°08'3 6.3
2017-May-27 15:00N 51°23' E 004°13'6 5.5
2017-May-27 14:00N 51°18' E 004°17'3 5.1
2017-May-27 13:30N 51°16' E 004°18'1 1.5
2017-May-27 13:00N 51°16' E 004°17'0 0.0
2017-May-27 12:30N 51°16' E 004°17'1 2.7
2017-May-27 12:00N 51°16' E 004°14'0 0.2
2017-May-27 10:23N 51°16' E 004°14'0 0.0
2017-May-27 08:59N 51°16' E 004°14'0 0.0
2017-May-27 08:14N 51°16' E 004°14'0 0.0
2017-May-27 07:59N 51°16' E 004°14'0 0.0
2017-May-27 06:59N 51°16' E 004°14'0 0.0
2017-May-27 06:29N 51°16' E 004°14'0 0.0
2017-May-27 05:47N 51°16' E 004°14'0 0.0
2017-May-27 05:26N 51°16' E 004°14'0 0.0
2017-May-27 03:59N 51°16' E 004°14'0 0.0
2017-May-27 03:29N 51°16' E 004°14'0 0.0
2017-May-27 02:59N 51°16' E 004°14'0 0.0
2017-May-27 02:29N 51°16' E 004°14'0 0.0
2017-May-27 01:56N 51°16' E 004°14'0 0.0
2017-May-27 01:29N 51°16' E 004°14'0 0.0
2017-May-27 00:59N 51°16' E 004°14'0 0.0
2017-May-27 00:29N 51°16' E 004°14'0 0.0
2017-May-26 23:59N 51°16' E 004°14'0 0.0
2017-May-26 23:26N 51°16' E 004°14'0 0.0
2017-May-26 22:53N 51°16' E 004°14'0 0.0
2017-May-26 22:29N 51°16' E 004°14'0 0.0
2017-May-26 21:59N 51°16' E 004°14'0 0.0
2017-May-26 21:20N 51°16' E 004°14'0 0.0
2017-May-26 20:59N 51°16' E 004°14'0 0.0
2017-May-26 20:26N 51°16' E 004°14'0 0.0
2017-May-26 19:59N 51°16' E 004°14'0 0.0
2017-May-26 19:29N 51°16' E 004°14'0 0.0
2017-May-26 18:59N 51°16' E 004°14'0 0.0
2017-May-26 18:29N 51°16' E 004°14'0 0.0
2017-May-26 17:59N 51°16' E 004°14'0 0.0
2017-May-26 17:28N 51°16' E 004°14'0 0.0
2017-May-26 16:58N 51°16' E 004°14'0 0.0
2017-May-26 16:28N 51°16' E 004°14'0 0.0
2017-May-26 15:46N 51°16' E 004°14'0 0.0
2017-May-26 15:25N 51°16' E 004°14'0 0.0
2017-May-26 14:58N 51°16' E 004°14'0 0.0
2017-May-26 13:58N 51°16' E 004°14'0 0.0
2017-May-26 13:28N 51°16' E 004°14'0 0.0
2017-May-26 12:58N 51°16' E 004°14'0 0.0
2017-May-26 12:10N 51°16' E 004°14'0 0.0
2017-May-26 11:19N 51°16' E 004°14'0 0.0
2017-May-26 09:52N 51°16' E 004°14'0 0.0
2017-May-26 09:22N 51°16' E 004°14'0 0.0
2017-May-26 08:52N 51°16' E 004°14'0 0.0
2017-May-26 08:28N 51°16' E 004°14'0 0.0
2017-May-26 07:55N 51°16' E 004°14'0 0.0
2017-May-26 07:28N 51°16' E 004°14'0 0.0
2017-May-26 06:58N 51°16' E 004°14'0 0.0
2017-May-26 06:25N 51°16' E 004°14'0 0.0
2017-May-26 05:58N 51°16' E 004°14'0 0.0
2017-May-26 05:28N 51°16' E 004°14'0 0.0
2017-May-26 04:58N 51°16' E 004°14'0 0.0
2017-May-26 04:28N 51°16' E 004°14'0 0.0
2017-May-26 03:58N 51°16' E 004°14'0 0.0
2017-May-26 03:25N 51°16' E 004°14'0 0.0
2017-May-26 02:58N 51°16' E 004°14'0 0.0
2017-May-26 02:28N 51°16' E 004°14'0 0.3
2017-May-26 01:58N 51°16' E 004°14'1 2.2
2017-May-26 01:30N 51°16' E 004°16'0 1.0
2017-May-26 01:00N 51°16' E 004°17'2 3.0
2017-May-26 00:31N 51°17' E 004°19'4 7.8
2017-May-26 00:01N 51°20' E 004°16'4 8.8
2017-May-25 23:30N 51°24' E 004°12'5 9.3
2017-May-25 23:01N 51°22' E 004°05'4 8.9
2017-May-25 22:31N 51°26' E 004°01'4 8.0
2017-May-25 22:00N 51°23' E 003°57'5 9.6
2017-May-25 21:31N 51°21' E 003°50'5 9.2
2017-May-25 21:01N 51°23' E 003°43'5 9.1
2017-May-25 20:31N 51°25' E 003°37'4 8.9
2017-May-25 20:00N 51°28' E 003°31'510.0
2017-May-25 19:30N 51°31' E 003°26'5 9.2
2017-May-25 19:00N 51°36' E 003°23'4 8.7
2017-May-25 18:30N 51°39' E 003°19'4 8.6
2017-May-25 18:00N 51°43' E 003°15'4 7.8
2017-May-25 17:31N 51°47' E 003°14'4 8.6
2017-May-25 17:00N 51°51' E 003°17'4 8.1
2017-May-25 16:31N 51°54' E 003°19'4 7.9
2017-May-25 16:01N 51°58' E 003°20'4 7.7
2017-May-25 15:30N 52°02' E 003°20'4 7.4
2017-May-25 14:59N 52°06' E 003°21'7 7.2
2017-May-25 14:00N 52°13' E 003°23'4 6.8
2017-May-25 13:23N 52°17' E 003°24'3 6.8
2017-May-25 12:59N 52°20' E 003°25'6 7.3
2017-May-25 12:09N 52°26' E 003°27'2 7.9
2017-May-25 11:57N 52°27' E 003°27'4 8.3
2017-May-25 11:30N 52°31' E 003°28'4 8.8
2017-May-25 11:00N 52°35' E 003°30'34 9.5
2017-May-25 07:28N 53°00' E 004°06'9 9.0
2017-May-25 06:30N 53°07' E 004°17'4 7.9
2017-May-25 05:58N 53°10' E 004°21'3 6.8
2017-May-25 05:30N 53°12' E 004°24'4 7.3
2017-May-25 05:00N 53°16' E 004°26'3 6.5
2017-May-25 04:30N 53°19' E 004°28'3 6.6
2017-May-25 04:00N 53°22' E 004°30'3 6.6
2017-May-25 03:30N 53°25' E 004°32'3 7.0
2017-May-25 03:00N 53°28' E 004°34'4 7.6
2017-May-25 02:30N 53°32' E 004°36'4 8.2
2017-May-25 01:59N 53°36' E 004°38'4 8.6
2017-May-25 01:30N 53°40' E 004°41'10 8.8
2017-May-25 00:24N 53°49' E 004°46'5 8.7
2017-May-24 23:50N 53°54' E 004°49'13 8.6
2017-May-24 22:22N 54°05' E 004°57'279 8.4
2017-May-23 13:08N 58°44' E 004°34'1 7.1
2017-May-23 13:00N 58°45' E 004°34'4 7.0
2017-May-23 12:30N 58°49' E 004°34'5 7.1
2017-May-23 11:50N 58°54' E 004°33'105 7.8
2017-May-22 22:20N 60°39' E 004°21'3 8.1
2017-May-22 22:00N 60°41' E 004°20'4 7.9
2017-May-22 21:30N 60°45' E 004°19'4 7.9
2017-May-22 21:00N 60°49' E 004°19'4 7.7
2017-May-22 20:30N 60°53' E 004°18'4 7.4
2017-May-22 20:01N 60°57' E 004°18'4 7.4
2017-May-22 19:30N 61°00' E 004°18'4 7.3
2017-May-22 18:59N 61°04' E 004°18'3 6.9
2017-May-22 18:30N 61°07' E 004°18'4 7.3
2017-May-22 18:00N 61°11' E 004°18'3 6.8
2017-May-22 17:30N 61°15' E 004°18'4 7.1
2017-May-22 17:00N 61°18' E 004°19'4 7.2
2017-May-22 16:30N 61°22' E 004°19'6 7.4
2017-May-22 15:41N 61°28' E 004°20'1 7.6
2017-May-22 15:31N 61°29' E 004°21'4 7.6
2017-May-22 15:00N 61°33' E 004°23'8 7.7
2017-May-22 14:00N 61°40' E 004°28'4 7.9
2017-May-22 13:30N 61°44' E 004°31'4 7.9
2017-May-22 13:00N 61°48' E 004°33'4 8.1
2017-May-22 12:30N 61°51' E 004°36'4 8.1
2017-May-22 12:00N 61°55' E 004°38'4 8.4
2017-May-22 11:30N 61°59' E 004°40'4 8.6
2017-May-22 11:00N 62°03' E 004°43'4 8.3
2017-May-22 10:30N 62°07' E 004°46'4 8.1
2017-May-22 10:00N 62°11' E 004°49'4 8.5
2017-May-22 09:30N 62°15' E 004°55'4 8.5
2017-May-22 09:00N 62°18' E 005°00'4 8.4
2017-May-22 08:30N 62°21' E 005°05'4 8.1
2017-May-22 08:00N 62°25' E 005°10'4 8.0
2017-May-22 07:30N 62°28' E 005°15'4 8.1
2017-May-22 07:00N 62°31' E 005°21'4 8.2
2017-May-22 06:30N 62°35' E 005°26'4 8.4
2017-May-22 06:00N 62°38' E 005°31'4 8.4
2017-May-22 05:30N 62°41' E 005°37'4 8.3
2017-May-22 05:00N 62°45' E 005°42'4 8.2
2017-May-22 04:30N 62°48' E 005°47'4 8.1
2017-May-22 04:00N 62°51' E 005°53'4 8.1
2017-May-22 03:30N 62°55' E 005°58'4 8.1
2017-May-22 02:59N 62°58' E 006°03'244 8.3
2017-May-20 21:29N 66°14' E 011°43'4 8.7
2017-May-20 21:00N 66°15' E 011°53'4 8.7
2017-May-20 20:30N 66°16' E 012°04'4 8.8
2017-May-20 20:00N 66°17' E 012°14'4 8.7
2017-May-20 19:31N 66°15' E 012°24'4 8.6
2017-May-20 19:00N 66°15' E 012°35'4 8.4
2017-May-20 18:31N 66°18' E 012°44'4 8.6
2017-May-20 18:00N 66°20' E 012°52'4 8.1
2017-May-20 17:29N 66°23' E 012°58'4 8.9
2017-May-20 17:01N 66°28' E 012°59'4 8.5
2017-May-20 16:30N 66°32' E 012°58'4 8.0
2017-May-20 16:01N 66°35' E 013°05'4 8.6
2017-May-20 15:31N 66°39' E 013°06'5 8.8
2017-May-20 15:00N 66°43' E 013°10'4 8.4
2017-May-20 14:30N 66°47' E 013°16'8 8.5
2017-May-20 13:30N 66°49' E 013°37'4 8.5
2017-May-20 13:00N 66°49' E 013°48'  

Dump ship's entire track history